This is the latest recevied weather packets stored in our database for station/object KSLG. If no packets are shown the sender has not sent any weather packets the latest 1 day(s).
| Time | Temp. | Humidity | Pressure | Rain* | Wind** | Luminosity | Snow |
|---|---|---|---|---|---|---|---|
| 1778005420 | 13.89° C | 100% | 1006.4 hPa | - | 7.15 m/s, 10° | - | - |
| 1778004818 | 16.67° C | 93% | 1006.1 hPa | - | 8.05 m/s, 360° | - | - |
| 1778004220 | 17.78° C | 100% | 1006.1 hPa | - | 4.02 m/s, 20° | - | - |
| 1778003619 | 17.78° C | 100% | 1005.8 hPa | - | 4.47 m/s, 30° | - | - |
| 1778003015 | 17.78° C | 100% | 1005.8 hPa | - | 5.36 m/s, 20° | - | - |
| 1778002417 | 17.78° C | 100% | 1005.8 hPa | - | 5.36 m/s, 20° | - | - |
| 1778001816 | 18.89° C | 100% | 1005.8 hPa | - | 4.92 m/s, 20° | - | - |
| 1778001222 | 20.56° C | 88% | 1005.4 hPa | - | 0 m/s | - | - |
| 1778000620 | 20.56° C | 88% | 1005.4 hPa | - | 0 m/s | - | - |
| 1778000020 | 20.56° C | 88% | 1005.4 hPa | - | 2.24 m/s, 100° | - | - |
| 1777999422 | 20.56° C | 88% | 1005.4 hPa | - | 2.24 m/s, 100° | - | - |
| 1777998818 | 20.56° C | 88% | 1005.4 hPa | - | 2.24 m/s, 100° | - | - |
| 1777998221 | 20.56° C | 88% | 1005.4 hPa | - | 2.24 m/s, 100° | - | - |
| 1777997618 | 20.56° C | 88% | 1005.4 hPa | - | 2.24 m/s, 100° | - | - |
| 1777997026 | 20.56° C | 88% | 1005.4 hPa | - | 2.24 m/s, 100° | - | - |
| 1777996422 | 20° C | 93% | 1005.1 hPa | - | 2.68 m/s, 120° | - | - |
| 1777995938 | 20° C | 93% | 1005.1 hPa | - | 2.68 m/s, 120° | - | - |
| 1777995218 | 20° C | 93% | 1005.1 hPa | - | 2.68 m/s, 120° | - | - |
| 1777994620 | 20° C | 93% | 1005.1 hPa | - | 2.68 m/s, 120° | - | - |
| 1777994018 | 18.89° C | 100% | 1005.1 hPa | - | 2.68 m/s, 130° | - | - |
| 1777993416 | 18.89° C | 100% | 1005.1 hPa | - | 2.68 m/s, 130° | - | - |
| 1777992818 | 17.78° C | 100% | 1005.8 hPa | - | 3.58 m/s, 130° | - | - |
| 1777992217 | 17.78° C | 100% | 1005.8 hPa | - | 3.58 m/s, 130° | - | - |
| 1777991616 | 17.78° C | 100% | 1005.8 hPa | - | 3.58 m/s, 130° | - | - |
| 1777991018 | 17.78° C | 100% | 1005.8 hPa | - | 3.58 m/s, 130° | - | - |
* Rain since midnight (hover to see other rain measurements)
** Current wind speed in m/s (hover to see current wind gust speed)